sensor_id;sensor_type;location;lat;lon;timestamp;temperature;humidity
60033;DHT22;45905;50.570;10.428;2023-03-14T00:00:16;9.50;99.90
60033;DHT22;45905;50.570;10.428;2023-03-14T00:02:44;9.50;99.90
60033;DHT22;45905;50.570;10.428;2023-03-14T00:05:11;9.50;99.90
60033;DHT22;45905;50.570;10.428;2023-03-14T00:07:39;9.50;99.90
60033;DHT22;45905;50.570;10.428;2023-03-14T00:10:12;9.50;99.90
60033;DHT22;45905;50.570;10.428;2023-03-14T00:12:41;9.50;99.90
60033;DHT22;45905;50.570;10.428;2023-03-14T00:15:09;9.50;99.90
60033;DHT22;45905;50.570;10.428;2023-03-14T00:17:37;9.50;99.90
60033;DHT22;45905;50.570;10.428;2023-03-14T00:20:06;9.40;99.90
60033;DHT22;45905;50.570;10.428;2023-03-14T00:22:38;9.40;99.90
60033;DHT22;45905;50.570;10.428;2023-03-14T00:25:08;9.40;99.90
60033;DHT22;45905;50.570;10.428;2023-03-14T00:27:37;9.40;99.90
60033;DHT22;45905;50.570;10.428;2023-03-14T00:30:05;9.40;99.90
60033;DHT22;45905;50.570;10.428;2023-03-14T00:32:34;9.40;99.90
60033;DHT22;45905;50.570;10.428;2023-03-14T00:35:03;9.40;99.90
60033;DHT22;45905;50.570;10.428;2023-03-14T00:37:31;9.30;99.90
60033;DHT22;45905;50.570;10.428;2023-03-14T00:39:58;9.30;99.90
60033;DHT22;45905;50.570;10.428;2023-03-14T00:42:25;9.30;99.90
60033;DHT22;45905;50.570;10.428;2023-03-14T00:44:52;9.30;99.90
60033;DHT22;45905;50.570;10.428;2023-03-14T00:47:19;9.30;99.90
60033;DHT22;45905;50.570;10.428;2023-03-14T00:49:46;9.30;99.90
60033;DHT22;45905;50.570;10.428;2023-03-14T00:52:14;9.30;99.90
60033;DHT22;45905;50.570;10.428;2023-03-14T00:54:41;9.20;99.90
60033;DHT22;45905;50.570;10.428;2023-03-14T00:57:09;9.20;99.90
60033;DHT22;45905;50.570;10.428;2023-03-14T00:59:36;9.20;99.90
60033;DHT22;45905;50.570;10.428;2023-03-14T01:02:03;9.20;99.90
60033;DHT22;45905;50.570;10.428;2023-03-14T01:04:30;9.20;99.90
60033;DHT22;45905;50.570;10.428;2023-03-14T01:06:58;9.10;99.90
60033;DHT22;45905;50.570;10.428;2023-03-14T01:09:25;9.10;99.90
60033;DHT22;45905;50.570;10.428;2023-03-14T01:11:52;9.10;99.90
60033;DHT22;45905;50.570;10.428;2023-03-14T01:14:19;9.10;99.90
60033;DHT22;45905;50.570;10.428;2023-03-14T01:16:46;9.10;99.90
60033;DHT22;45905;50.570;10.428;2023-03-14T01:19:13;9.10;99.90
60033;DHT22;45905;50.570;10.428;2023-03-14T01:21:41;9.10;99.90
60033;DHT22;45905;50.570;10.428;2023-03-14T01:24:11;9.10;99.90
60033;DHT22;45905;50.570;10.428;2023-03-14T01:26:39;9.10;99.90
60033;DHT22;45905;50.570;10.428;2023-03-14T01:29:07;9.00;99.90
60033;DHT22;45905;50.570;10.428;2023-03-14T01:31:37;9.00;99.90
60033;DHT22;45905;50.570;10.428;2023-03-14T01:34:05;9.00;99.90
60033;DHT22;45905;50.570;10.428;2023-03-14T01:36:32;9.00;99.90
60033;DHT22;45905;50.570;10.428;2023-03-14T01:39:01;9.10;99.90
60033;DHT22;45905;50.570;10.428;2023-03-14T01:41:29;9.00;99.90
60033;DHT22;45905;50.570;10.428;2023-03-14T01:43:57;9.00;99.90
60033;DHT22;45905;50.570;10.428;2023-03-14T01:46:29;9.00;99.90
60033;DHT22;45905;50.570;10.428;2023-03-14T01:49:02;9.00;99.90
60033;DHT22;45905;50.570;10.428;2023-03-14T01:54:47;9.00;99.90
60033;DHT22;45905;50.570;10.428;2023-03-14T01:57:28;9.00;99.90
60033;DHT22;45905;50.570;10.428;2023-03-14T02:00:20;9.00;99.90
60033;DHT22;45905;50.570;10.428;2023-03-14T02:02:52;8.90;99.90
60033;DHT22;45905;50.570;10.428;2023-03-14T02:05:25;8.90;99.90
60033;DHT22;45905;50.570;10.428;2023-03-14T02:08:02;8.90;99.90
60033;DHT22;45905;50.570;10.428;2023-03-14T02:10:44;8.90;99.90
60033;DHT22;45905;50.570;10.428;2023-03-14T02:13:16;8.90;99.90
60033;DHT22;45905;50.570;10.428;2023-03-14T02:15:53;8.90;99.90
60033;DHT22;45905;50.570;10.428;2023-03-14T02:18:39;8.90;99.90
60033;DHT22;45905;50.570;10.428;2023-03-14T02:21:46;8.90;99.90
60033;DHT22;45905;50.570;10.428;2023-03-14T02:27:18;8.90;99.90
60033;DHT22;45905;50.570;10.428;2023-03-14T02:29:55;8.90;99.90
60033;DHT22;45905;50.570;10.428;2023-03-14T02:32:29;8.90;99.90
60033;DHT22;45905;50.570;10.428;2023-03-14T02:35:01;8.90;99.90
60033;DHT22;45905;50.570;10.428;2023-03-14T02:37:38;8.90;99.90
60033;DHT22;45905;50.570;10.428;2023-03-14T02:40:09;8.90;99.90
60033;DHT22;45905;50.570;10.428;2023-03-14T02:42:38;8.90;99.90
60033;DHT22;45905;50.570;10.428;2023-03-14T02:47:44;8.90;99.90
60033;DHT22;45905;50.570;10.428;2023-03-14T02:50:19;8.90;99.90
60033;DHT22;45905;50.570;10.428;2023-03-14T02:52:48;8.90;99.90
60033;DHT22;45905;50.570;10.428;2023-03-14T02:55:23;8.90;99.90
60033;DHT22;45905;50.570;10.428;2023-03-14T02:58:00;8.90;99.90
60033;DHT22;45905;50.570;10.428;2023-03-14T03:00:27;8.90;99.90
60033;DHT22;45905;50.570;10.428;2023-03-14T03:02:57;8.90;99.90
60033;DHT22;45905;50.570;10.428;2023-03-14T03:05:24;8.90;99.90
60033;DHT22;45905;50.570;10.428;2023-03-14T03:07:51;8.90;99.90
60033;DHT22;45905;50.570;10.428;2023-03-14T03:10:19;8.90;99.90
60033;DHT22;45905;50.570;10.428;2023-03-14T03:12:46;8.90;99.90
60033;DHT22;45905;50.570;10.428;2023-03-14T03:15:13;8.80;99.90
60033;DHT22;45905;50.570;10.428;2023-03-14T03:17:40;8.80;99.90
60033;DHT22;45905;50.570;10.428;2023-03-14T03:20:08;8.80;99.90
60033;DHT22;45905;50.570;10.428;2023-03-14T03:22:38;8.90;99.90
60033;DHT22;45905;50.570;10.428;2023-03-14T03:25:07;8.90;99.90
60033;DHT22;45905;50.570;10.428;2023-03-14T03:27:36;8.80;99.90
60033;DHT22;45905;50.570;10.428;2023-03-14T03:30:05;8.90;99.90
60033;DHT22;45905;50.570;10.428;2023-03-14T03:32:35;8.90;99.90
60033;DHT22;45905;50.570;10.428;2023-03-14T03:35:04;8.80;99.90
60033;DHT22;45905;50.570;10.428;2023-03-14T03:37:35;8.80;99.90
60033;DHT22;45905;50.570;10.428;2023-03-14T03:40:06;8.80;99.90
60033;DHT22;45905;50.570;10.428;2023-03-14T03:42:36;8.80;99.90
60033;DHT22;45905;50.570;10.428;2023-03-14T03:45:06;8.80;99.90
60033;DHT22;45905;50.570;10.428;2023-03-14T03:47:38;8.90;99.90
60033;DHT22;45905;50.570;10.428;2023-03-14T03:50:05;8.90;99.90
60033;DHT22;45905;50.570;10.428;2023-03-14T03:52:33;8.90;99.90
60033;DHT22;45905;50.570;10.428;2023-03-14T03:55:00;8.90;99.90
60033;DHT22;45905;50.570;10.428;2023-03-14T03:57:28;8.90;99.90
60033;DHT22;45905;50.570;10.428;2023-03-14T03:59:56;8.90;99.90
60033;DHT22;45905;50.570;10.428;2023-03-14T04:02:23;8.90;99.90
60033;DHT22;45905;50.570;10.428;2023-03-14T04:04:50;8.90;99.90
60033;DHT22;45905;50.570;10.428;2023-03-14T04:07:18;8.90;99.90
60033;DHT22;45905;50.570;10.428;2023-03-14T04:09:45;8.90;99.90
60033;DHT22;45905;50.570;10.428;2023-03-14T04:12:31;8.90;99.90
60033;DHT22;45905;50.570;10.428;2023-03-14T04:15:05;8.90;99.90
60033;DHT22;45905;50.570;10.428;2023-03-14T04:17:34;8.90;99.90
60033;DHT22;45905;50.570;10.428;2023-03-14T04:20:01;8.90;99.90
60033;DHT22;45905;50.570;10.428;2023-03-14T04:22:34;8.90;99.90
60033;DHT22;45905;50.570;10.428;2023-03-14T04:25:01;8.90;99.90
60033;DHT22;45905;50.570;10.428;2023-03-14T04:27:33;8.90;99.90
60033;DHT22;45905;50.570;10.428;2023-03-14T04:30:03;8.90;99.90
60033;DHT22;45905;50.570;10.428;2023-03-14T04:32:46;8.80;99.90
60033;DHT22;45905;50.570;10.428;2023-03-14T04:35:14;8.90;99.90
60033;DHT22;45905;50.570;10.428;2023-03-14T04:37:42;8.80;99.90
60033;DHT22;45905;50.570;10.428;2023-03-14T04:40:12;8.80;99.90
60033;DHT22;45905;50.570;10.428;2023-03-14T04:42:39;8.80;99.90
60033;DHT22;45905;50.570;10.428;2023-03-14T04:45:08;8.80;99.90
60033;DHT22;45905;50.570;10.428;2023-03-14T04:47:37;8.80;99.90
60033;DHT22;45905;50.570;10.428;2023-03-14T04:50:04;8.80;99.90
60033;DHT22;45905;50.570;10.428;2023-03-14T04:52:32;8.80;99.90
60033;DHT22;45905;50.570;10.428;2023-03-14T04:55:00;8.80;99.90
60033;DHT22;45905;50.570;10.428;2023-03-14T04:57:28;8.80;99.90
60033;DHT22;45905;50.570;10.428;2023-03-14T04:59:55;8.80;99.90
60033;DHT22;45905;50.570;10.428;2023-03-14T05:02:43;8.80;99.90
60033;DHT22;45905;50.570;10.428;2023-03-14T05:05:21;8.80;99.90
60033;DHT22;45905;50.570;10.428;2023-03-14T05:08:04;8.80;99.90
60033;DHT22;45905;50.570;10.428;2023-03-14T05:10:53;8.80;99.90
60033;DHT22;45905;50.570;10.428;2023-03-14T05:13:37;8.80;99.90
60033;DHT22;45905;50.570;10.428;2023-03-14T05:16:32;8.80;99.90
60033;DHT22;45905;50.570;10.428;2023-03-14T05:19:22;8.80;99.90
60033;DHT22;45905;50.570;10.428;2023-03-14T05:22:16;8.70;99.90
60033;DHT22;45905;50.570;10.428;2023-03-14T05:24:54;8.70;99.90
60033;DHT22;45905;50.570;10.428;2023-03-14T05:27:46;8.70;99.90
60033;DHT22;45905;50.570;10.428;2023-03-14T05:30:35;8.70;99.90
60033;DHT22;45905;50.570;10.428;2023-03-14T05:33:14;8.70;99.90
60033;DHT22;45905;50.570;10.428;2023-03-14T05:36:08;8.70;99.90
60033;DHT22;45905;50.570;10.428;2023-03-14T05:38:55;8.70;99.90
60033;DHT22;45905;50.570;10.428;2023-03-14T05:41:48;8.70;99.90
60033;DHT22;45905;50.570;10.428;2023-03-14T05:44:16;8.70;99.90
60033;DHT22;45905;50.570;10.428;2023-03-14T05:47:02;8.70;99.90
60033;DHT22;45905;50.570;10.428;2023-03-14T05:49:49;8.70;99.90
60033;DHT22;45905;50.570;10.428;2023-03-14T05:52:35;8.70;99.90
60033;DHT22;45905;50.570;10.428;2023-03-14T05:55:09;8.60;99.90
60033;DHT22;45905;50.570;10.428;2023-03-14T05:57:55;8.70;99.90
60033;DHT22;45905;50.570;10.428;2023-03-14T06:00:49;8.70;99.90
60033;DHT22;45905;50.570;10.428;2023-03-14T06:03:34;8.70;99.90
60033;DHT22;45905;50.570;10.428;2023-03-14T06:06:01;8.70;99.90
60033;DHT22;45905;50.570;10.428;2023-03-14T06:08:29;8.70;99.90
60033;DHT22;45905;50.570;10.428;2023-03-14T06:10:57;8.70;99.90
60033;DHT22;45905;50.570;10.428;2023-03-14T06:13:29;8.70;99.90
60033;DHT22;45905;50.570;10.428;2023-03-14T06:15:56;8.70;99.90
60033;DHT22;45905;50.570;10.428;2023-03-14T06:18:23;8.70;99.90
60033;DHT22;45905;50.570;10.428;2023-03-14T06:20:55;8.60;99.90
60033;DHT22;45905;50.570;10.428;2023-03-14T06:23:25;8.60;99.90
60033;DHT22;45905;50.570;10.428;2023-03-14T06:25:54;8.60;99.90
60033;DHT22;45905;50.570;10.428;2023-03-14T06:28:23;8.60;99.90
60033;DHT22;45905;50.570;10.428;2023-03-14T06:30:52;8.60;99.90
60033;DHT22;45905;50.570;10.428;2023-03-14T06:33:20;8.60;99.90
60033;DHT22;45905;50.570;10.428;2023-03-14T06:35:47;8.60;99.90
60033;DHT22;45905;50.570;10.428;2023-03-14T06:38:14;8.60;99.90
60033;DHT22;45905;50.570;10.428;2023-03-14T06:40:41;8.60;99.90
60033;DHT22;45905;50.570;10.428;2023-03-14T06:43:12;8.60;99.90
60033;DHT22;45905;50.570;10.428;2023-03-14T06:45:42;8.60;99.90
60033;DHT22;45905;50.570;10.428;2023-03-14T06:48:09;8.60;99.90
60033;DHT22;45905;50.570;10.428;2023-03-14T06:50:42;8.60;99.90
60033;DHT22;45905;50.570;10.428;2023-03-14T06:53:09;8.60;99.90
60033;DHT22;45905;50.570;10.428;2023-03-14T06:55:40;8.60;99.90
60033;DHT22;45905;50.570;10.428;2023-03-14T06:58:07;8.60;99.90
60033;DHT22;45905;50.570;10.428;2023-03-14T07:00:41;8.60;99.90
60033;DHT22;45905;50.570;10.428;2023-03-14T07:03:10;8.60;99.90
60033;DHT22;45905;50.570;10.428;2023-03-14T07:05:41;8.60;99.90
60033;DHT22;45905;50.570;10.428;2023-03-14T07:08:09;7.90;99.90
60033;DHT22;45905;50.570;10.428;2023-03-14T07:10:37;8.60;99.90
60033;DHT22;45905;50.570;10.428;2023-03-14T07:13:06;8.60;99.90
60033;DHT22;45905;50.570;10.428;2023-03-14T07:15:39;8.60;99.90
60033;DHT22;45905;50.570;10.428;2023-03-14T07:18:09;8.50;99.90
60033;DHT22;45905;50.570;10.428;2023-03-14T07:20:36;8.60;99.90
60033;DHT22;45905;50.570;10.428;2023-03-14T07:23:04;8.60;99.90
60033;DHT22;45905;50.570;10.428;2023-03-14T07:25:39;8.60;99.90
60033;DHT22;45905;50.570;10.428;2023-03-14T07:28:06;8.60;99.90
60033;DHT22;45905;50.570;10.428;2023-03-14T07:30:33;8.60;99.90
60033;DHT22;45905;50.570;10.428;2023-03-14T07:33:03;8.20;99.90
60033;DHT22;45905;50.570;10.428;2023-03-14T07:35:30;8.60;99.90
60033;DHT22;45905;50.570;10.428;2023-03-14T07:37:57;8.60;99.90
60033;DHT22;45905;50.570;10.428;2023-03-14T07:40:32;8.70;99.90
60033;DHT22;45905;50.570;10.428;2023-03-14T07:42:59;8.70;99.90
60033;DHT22;45905;50.570;10.428;2023-03-14T07:45:36;8.60;99.90
60033;DHT22;45905;50.570;10.428;2023-03-14T07:48:08;8.70;99.90
60033;DHT22;45905;50.570;10.428;2023-03-14T07:50:35;8.70;99.90
60033;DHT22;45905;50.570;10.428;2023-03-14T07:53:02;8.80;99.90
60033;DHT22;45905;50.570;10.428;2023-03-14T07:55:30;8.80;99.90
60033;DHT22;45905;50.570;10.428;2023-03-14T07:57:57;8.80;99.90
60033;DHT22;45905;50.570;10.428;2023-03-14T08:00:24;8.80;99.90
60033;DHT22;45905;50.570;10.428;2023-03-14T08:02:52;8.90;99.90
60033;DHT22;45905;50.570;10.428;2023-03-14T08:05:19;8.90;99.90
60033;DHT22;45905;50.570;10.428;2023-03-14T08:07:46;8.90;99.90
60033;DHT22;45905;50.570;10.428;2023-03-14T08:10:13;8.90;99.90
60033;DHT22;45905;50.570;10.428;2023-03-14T08:12:58;9.00;99.90
60033;DHT22;45905;50.570;10.428;2023-03-14T08:15:28;9.00;99.90
60033;DHT22;45905;50.570;10.428;2023-03-14T08:17:57;9.00;99.90
60033;DHT22;45905;50.570;10.428;2023-03-14T08:20:26;9.00;99.90
60033;DHT22;45905;50.570;10.428;2023-03-14T08:22:56;9.00;99.90
60033;DHT22;45905;50.570;10.428;2023-03-14T08:25:25;9.00;99.90
60033;DHT22;45905;50.570;10.428;2023-03-14T08:27:54;9.00;99.90
60033;DHT22;45905;50.570;10.428;2023-03-14T08:30:22;9.00;99.90
60033;DHT22;45905;50.570;10.428;2023-03-14T08:32:49;9.00;99.90
60033;DHT22;45905;50.570;10.428;2023-03-14T08:35:16;9.00;99.90
60033;DHT22;45905;50.570;10.428;2023-03-14T08:37:44;9.00;99.90
60033;DHT22;45905;50.570;10.428;2023-03-14T08:40:11;9.00;99.90
60033;DHT22;45905;50.570;10.428;2023-03-14T08:42:40;9.00;99.90
60033;DHT22;45905;50.570;10.428;2023-03-14T08:45:08;9.00;99.90
60033;DHT22;45905;50.570;10.428;2023-03-14T08:47:39;9.00;99.90
60033;DHT22;45905;50.570;10.428;2023-03-14T08:50:07;9.00;99.90
60033;DHT22;45905;50.570;10.428;2023-03-14T08:52:36;9.00;99.90
60033;DHT22;45905;50.570;10.428;2023-03-14T08:55:09;9.00;99.90
60033;DHT22;45905;50.570;10.428;2023-03-14T08:57:36;9.00;99.90
60033;DHT22;45905;50.570;10.428;2023-03-14T09:00:05;9.00;99.90
60033;DHT22;45905;50.570;10.428;2023-03-14T09:02:42;9.00;99.90
60033;DHT22;45905;50.570;10.428;2023-03-14T09:05:10;9.10;99.90
60033;DHT22;45905;50.570;10.428;2023-03-14T09:07:38;9.10;99.90
60033;DHT22;45905;50.570;10.428;2023-03-14T09:10:07;9.10;99.90
60033;DHT22;45905;50.570;10.428;2023-03-14T09:12:36;9.20;99.90
60033;DHT22;45905;50.570;10.428;2023-03-14T09:15:03;9.20;99.90
60033;DHT22;45905;50.570;10.428;2023-03-14T09:17:31;9.20;99.90
60033;DHT22;45905;50.570;10.428;2023-03-14T09:19:58;9.30;99.90
60033;DHT22;45905;50.570;10.428;2023-03-14T09:22:26;9.30;99.90
60033;DHT22;45905;50.570;10.428;2023-03-14T09:24:53;9.30;99.90
60033;DHT22;45905;50.570;10.428;2023-03-14T09:27:20;9.40;99.90
60033;DHT22;45905;50.570;10.428;2023-03-14T09:29:47;9.40;99.90
60033;DHT22;45905;50.570;10.428;2023-03-14T09:32:14;9.40;99.90
60033;DHT22;45905;50.570;10.428;2023-03-14T09:34:42;9.40;99.90
60033;DHT22;45905;50.570;10.428;2023-03-14T09:37:09;9.50;99.90
60033;DHT22;45905;50.570;10.428;2023-03-14T09:39:36;9.50;99.90
60033;DHT22;45905;50.570;10.428;2023-03-14T09:42:06;9.50;99.90
60033;DHT22;45905;50.570;10.428;2023-03-14T09:44:42;9.60;99.90
60033;DHT22;45905;50.570;10.428;2023-03-14T09:47:23;9.60;99.90
60033;DHT22;45905;50.570;10.428;2023-03-14T09:49:51;9.70;99.90
60033;DHT22;45905;50.570;10.428;2023-03-14T09:52:38;9.70;99.90
60033;DHT22;45905;50.570;10.428;2023-03-14T09:55:22;9.50;99.90
60033;DHT22;45905;50.570;10.428;2023-03-14T09:57:54;9.80;99.90
60033;DHT22;45905;50.570;10.428;2023-03-14T10:00:30;9.90;99.90
60033;DHT22;45905;50.570;10.428;2023-03-14T10:06:13;9.90;99.90
60033;DHT22;45905;50.570;10.428;2023-03-14T10:08:44;9.90;99.90
60033;DHT22;45905;50.570;10.428;2023-03-14T10:11:17;9.90;99.90
60033;DHT22;45905;50.570;10.428;2023-03-14T10:14:10;10.00;99.90
60033;DHT22;45905;50.570;10.428;2023-03-14T10:16:43;9.90;99.90
60033;DHT22;45905;50.570;10.428;2023-03-14T10:19:14;9.90;99.90
60033;DHT22;45905;50.570;10.428;2023-03-14T10:21:53;9.90;99.90
60033;DHT22;45905;50.570;10.428;2023-03-14T10:24:26;9.90;99.90
60033;DHT22;45905;50.570;10.428;2023-03-14T10:27:02;9.90;99.90
60033;DHT22;45905;50.570;10.428;2023-03-14T10:29:34;9.90;99.90
60033;DHT22;45905;50.570;10.428;2023-03-14T10:32:20;9.90;99.90
60033;DHT22;45905;50.570;10.428;2023-03-14T10:38:00;9.90;99.90
60033;DHT22;45905;50.570;10.428;2023-03-14T10:40:42;9.90;99.90
60033;DHT22;45905;50.570;10.428;2023-03-14T10:43:17;9.90;99.90
60033;DHT22;45905;50.570;10.428;2023-03-14T10:45:55;9.70;99.90
60033;DHT22;45905;50.570;10.428;2023-03-14T10:48:38;9.90;99.90
60033;DHT22;45905;50.570;10.428;2023-03-14T10:51:33;9.90;99.90
60033;DHT22;45905;50.570;10.428;2023-03-14T10:54:02;10.00;99.90
60033;DHT22;45905;50.570;10.428;2023-03-14T10:56:38;10.00;99.90
60033;DHT22;45905;50.570;10.428;2023-03-14T10:59:13;10.00;99.90
60033;DHT22;45905;50.570;10.428;2023-03-14T11:07:42;10.00;99.90
60033;DHT22;45905;50.570;10.428;2023-03-14T11:10:44;10.00;99.90
60033;DHT22;45905;50.570;10.428;2023-03-14T11:13:26;10.00;99.90
60033;DHT22;45905;50.570;10.428;2023-03-14T11:17:02;10.00;99.90
60033;DHT22;45905;50.570;10.428;2023-03-14T11:25:32;9.90;99.90
60033;DHT22;45905;50.570;10.428;2023-03-14T11:31:20;9.90;99.90
60033;DHT22;45905;50.570;10.428;2023-03-14T11:37:06;10.10;99.90
60033;DHT22;45905;50.570;10.428;2023-03-14T11:39:39;10.10;99.90
60033;DHT22;45905;50.570;10.428;2023-03-14T11:42:14;10.20;99.90
60033;DHT22;45905;50.570;10.428;2023-03-14T11:44:47;10.20;99.90
60033;DHT22;45905;50.570;10.428;2023-03-14T11:47:20;10.30;99.90
60033;DHT22;45905;50.570;10.428;2023-03-14T11:55:43;10.50;99.90
60033;DHT22;45905;50.570;10.428;2023-03-14T11:58:20;10.60;99.90
60033;DHT22;45905;50.570;10.428;2023-03-14T12:00:52;10.70;99.90
60033;DHT22;45905;50.570;10.428;2023-03-14T12:03:32;10.80;99.90
60033;DHT22;45905;50.570;10.428;2023-03-14T12:09:13;10.80;99.90
60033;DHT22;45905;50.570;10.428;2023-03-14T12:11:53;10.90;99.90
60033;DHT22;45905;50.570;10.428;2023-03-14T12:14:28;10.80;99.90
60033;DHT22;45905;50.570;10.428;2023-03-14T12:17:04;10.80;99.90
60033;DHT22;45905;50.570;10.428;2023-03-14T12:19:34;10.80;99.90
60033;DHT22;45905;50.570;10.428;2023-03-14T12:22:27;10.80;99.90
60033;DHT22;45905;50.570;10.428;2023-03-14T12:25:15;10.70;99.90
60033;DHT22;45905;50.570;10.428;2023-03-14T12:27:47;10.70;99.90
60033;DHT22;45905;50.570;10.428;2023-03-14T12:30:31;10.60;99.90
60033;DHT22;45905;50.570;10.428;2023-03-14T12:35:46;10.60;99.90
60033;DHT22;45905;50.570;10.428;2023-03-14T12:38:32;10.50;99.90
60033;DHT22;45905;50.570;10.428;2023-03-14T12:43:55;10.40;99.90
60033;DHT22;45905;50.570;10.428;2023-03-14T12:46:28;10.20;99.90
60033;DHT22;45905;50.570;10.428;2023-03-14T12:49:04;10.20;99.90
60033;DHT22;45905;50.570;10.428;2023-03-14T12:51:38;10.20;99.90
60033;DHT22;45905;50.570;10.428;2023-03-14T13:00:21;10.10;99.90
60033;DHT22;45905;50.570;10.428;2023-03-14T13:02:50;10.10;99.90
60033;DHT22;45905;50.570;10.428;2023-03-14T13:05:22;10.10;99.90
60033;DHT22;45905;50.570;10.428;2023-03-14T13:10:23;10.10;99.90
60033;DHT22;45905;50.570;10.428;2023-03-14T13:13:03;10.00;99.90
60033;DHT22;45905;50.570;10.428;2023-03-14T13:15:56;10.00;99.90
60033;DHT22;45905;50.570;10.428;2023-03-14T13:18:35;9.90;99.90
60033;DHT22;45905;50.570;10.428;2023-03-14T13:21:20;10.00;99.90
60033;DHT22;45905;50.570;10.428;2023-03-14T13:24:00;10.00;99.90
60033;DHT22;45905;50.570;10.428;2023-03-14T13:26:41;9.90;99.90
60033;DHT22;45905;50.570;10.428;2023-03-14T13:29:25;9.90;99.90
60033;DHT22;45905;50.570;10.428;2023-03-14T13:31:56;9.90;99.90
60033;DHT22;45905;50.570;10.428;2023-03-14T13:34:32;9.90;99.90
60033;DHT22;45905;50.570;10.428;2023-03-14T13:37:01;9.90;99.90
60033;DHT22;45905;50.570;10.428;2023-03-14T13:39:28;9.80;99.90
60033;DHT22;45905;50.570;10.428;2023-03-14T13:42:00;9.80;99.90
60033;DHT22;45905;50.570;10.428;2023-03-14T13:44:34;9.70;99.90
60033;DHT22;45905;50.570;10.428;2023-03-14T13:47:15;9.70;99.90
60033;DHT22;45905;50.570;10.428;2023-03-14T13:49:45;9.70;99.90
60033;DHT22;45905;50.570;10.428;2023-03-14T13:55:22;9.70;99.90
60033;DHT22;45905;50.570;10.428;2023-03-14T13:57:52;9.70;99.90
60033;DHT22;45905;50.570;10.428;2023-03-14T14:00:24;9.60;99.90
60033;DHT22;45905;50.570;10.428;2023-03-14T14:02:58;9.60;99.90
60033;DHT22;45905;50.570;10.428;2023-03-14T14:05:28;9.50;99.90
60033;DHT22;45905;50.570;10.428;2023-03-14T14:07:58;9.40;99.90
60033;DHT22;45905;50.570;10.428;2023-03-14T14:10:36;9.20;99.90
60033;DHT22;45905;50.570;10.428;2023-03-14T14:13:06;9.00;99.90
60033;DHT22;45905;50.570;10.428;2023-03-14T14:15:41;8.80;99.90
60033;DHT22;45905;50.570;10.428;2023-03-14T14:18:16;8.70;99.90
60033;DHT22;45905;50.570;10.428;2023-03-14T14:20:48;8.60;99.90
60033;DHT22;45905;50.570;10.428;2023-03-14T14:23:21;8.50;99.90
60033;DHT22;45905;50.570;10.428;2023-03-14T14:25:53;8.40;99.90
60033;DHT22;45905;50.570;10.428;2023-03-14T14:28:26;8.40;99.90
60033;DHT22;45905;50.570;10.428;2023-03-14T14:31:19;8.30;99.90
60033;DHT22;45905;50.570;10.428;2023-03-14T14:33:58;8.20;99.90
60033;DHT22;45905;50.570;10.428;2023-03-14T14:36:41;8.20;99.90
60033;DHT22;45905;50.570;10.428;2023-03-14T14:39:19;8.20;99.90
60033;DHT22;45905;50.570;10.428;2023-03-14T14:41:51;8.10;99.90
60033;DHT22;45905;50.570;10.428;2023-03-14T14:44:30;8.00;99.90
60033;DHT22;45905;50.570;10.428;2023-03-14T14:47:03;7.90;99.90
60033;DHT22;45905;50.570;10.428;2023-03-14T14:49:32;7.80;99.90
60033;DHT22;45905;50.570;10.428;2023-03-14T14:52:12;7.80;99.90
60033;DHT22;45905;50.570;10.428;2023-03-14T14:57:32;7.70;99.90
60033;DHT22;45905;50.570;10.428;2023-03-14T15:00:21;7.60;99.90
60033;DHT22;45905;50.570;10.428;2023-03-14T15:02:52;7.50;99.90
60033;DHT22;45905;50.570;10.428;2023-03-14T15:05:24;7.30;99.90
60033;DHT22;45905;50.570;10.428;2023-03-14T15:07:54;7.20;99.90
60033;DHT22;45905;50.570;10.428;2023-03-14T15:10:23;7.10;99.90
60033;DHT22;45905;50.570;10.428;2023-03-14T15:12:51;7.10;99.90
60033;DHT22;45905;50.570;10.428;2023-03-14T15:15:19;6.90;99.90
60033;DHT22;45905;50.570;10.428;2023-03-14T15:17:46;6.90;99.90
60033;DHT22;45905;50.570;10.428;2023-03-14T15:20:16;6.80;99.90
60033;DHT22;45905;50.570;10.428;2023-03-14T15:22:45;6.70;99.90
60033;DHT22;45905;50.570;10.428;2023-03-14T15:25:13;6.70;99.90
60033;DHT22;45905;50.570;10.428;2023-03-14T15:28:00;6.70;99.90
60033;DHT22;45905;50.570;10.428;2023-03-14T15:30:27;6.60;99.90
60033;DHT22;45905;50.570;10.428;2023-03-14T15:32:54;6.50;99.90
60033;DHT22;45905;50.570;10.428;2023-03-14T15:35:22;6.50;99.90
60033;DHT22;45905;50.570;10.428;2023-03-14T15:37:49;6.50;99.90
60033;DHT22;45905;50.570;10.428;2023-03-14T15:40:16;6.50;99.90
60033;DHT22;45905;50.570;10.428;2023-03-14T15:42:45;6.50;99.90
60033;DHT22;45905;50.570;10.428;2023-03-14T15:45:13;6.40;99.90
60033;DHT22;45905;50.570;10.428;2023-03-14T15:47:40;6.30;99.90
60033;DHT22;45905;50.570;10.428;2023-03-14T15:50:09;6.20;99.90
60033;DHT22;45905;50.570;10.428;2023-03-14T15:52:37;6.10;99.90
60033;DHT22;45905;50.570;10.428;2023-03-14T15:55:04;5.90;99.90
60033;DHT22;45905;50.570;10.428;2023-03-14T15:57:32;5.80;99.90
60033;DHT22;45905;50.570;10.428;2023-03-14T15:59:59;5.80;99.90
60033;DHT22;45905;50.570;10.428;2023-03-14T16:02:27;5.70;99.90
60033;DHT22;45905;50.570;10.428;2023-03-14T16:04:55;5.60;99.90
60033;DHT22;45905;50.570;10.428;2023-03-14T16:07:22;5.50;99.90
60033;DHT22;45905;50.570;10.428;2023-03-14T16:09:49;5.40;99.90
60033;DHT22;45905;50.570;10.428;2023-03-14T16:12:16;5.40;99.90
60033;DHT22;45905;50.570;10.428;2023-03-14T16:14:47;5.40;99.90
60033;DHT22;45905;50.570;10.428;2023-03-14T16:17:14;5.30;99.90
60033;DHT22;45905;50.570;10.428;2023-03-14T16:19:41;5.30;99.90
60033;DHT22;45905;50.570;10.428;2023-03-14T16:22:09;5.30;99.90
60033;DHT22;45905;50.570;10.428;2023-03-14T16:24:36;5.30;99.90
60033;DHT22;45905;50.570;10.428;2023-03-14T16:27:04;5.40;99.90
60033;DHT22;45905;50.570;10.428;2023-03-14T16:29:34;5.30;99.90
60033;DHT22;45905;50.570;10.428;2023-03-14T16:32:01;5.30;99.90
60033;DHT22;45905;50.570;10.428;2023-03-14T16:34:28;5.20;99.90
60033;DHT22;45905;50.570;10.428;2023-03-14T16:36:56;5.20;99.90
60033;DHT22;45905;50.570;10.428;2023-03-14T16:39:23;5.20;99.90
60033;DHT22;45905;50.570;10.428;2023-03-14T16:41:50;5.10;99.90
60033;DHT22;45905;50.570;10.428;2023-03-14T16:44:21;5.10;99.90
60033;DHT22;45905;50.570;10.428;2023-03-14T16:46:48;5.10;99.90
60033;DHT22;45905;50.570;10.428;2023-03-14T16:49:16;5.10;99.90
60033;DHT22;45905;50.570;10.428;2023-03-14T16:51:43;5.10;99.90
60033;DHT22;45905;50.570;10.428;2023-03-14T16:54:10;5.10;99.90
60033;DHT22;45905;50.570;10.428;2023-03-14T16:56:38;5.00;99.90
60033;DHT22;45905;50.570;10.428;2023-03-14T16:59:05;5.00;99.90
60033;DHT22;45905;50.570;10.428;2023-03-14T17:01:33;5.00;99.90
60033;DHT22;45905;50.570;10.428;2023-03-14T17:04:00;4.90;99.90